Dodson, Montana
Current Conditions -  °F | °C
As of 12:53 AM on Sunday 26 Oct 2014 (Local Time) from KHVR Reporting Station
Few Clouds Few Clouds  
Wind Chill: 39°   Ceiling: Unl
Heat Index: 44°   Visibility: 10mi
Dew Point: 38°   Wind: 9mph
Humidity: 79%   Direction: 190°S
Pressure: 29.57"   Gusts: NA
Location:  48.4°N, 108.24°W
Report Text: KHVR 260653Z AUTO 19008KT 10SM FEW120 07/03 A2957 RMK AO2 SLP011 T00670033 402110028 $
Loading
Personal Weather Stations






























Interactive Weather Map
Tropical Storm Tracking
New forecast layout! Learn more

10-Day Weather Forecast

Advertisements
Track Severe Weather on mobile